createdAt,value
2022-10-28T00:00:38.202Z,13.62
2022-10-28T00:01:41.483Z,13.60
2022-10-28T00:02:43.994Z,13.59
2022-10-28T00:03:52.094Z,13.66
2022-10-28T00:04:55.516Z,13.66
2022-10-28T00:06:07.100Z,13.67
2022-10-28T00:07:10.929Z,13.66
2022-10-28T00:08:16.453Z,13.64
2022-10-28T00:09:19.286Z,13.57
2022-10-28T00:10:24.331Z,13.57
2022-10-28T00:11:29.754Z,13.65
2022-10-28T00:12:36.993Z,13.73
2022-10-28T00:13:39.897Z,13.74
2022-10-28T00:14:43.402Z,13.69
2022-10-28T00:15:46.582Z,13.66
2022-10-28T00:16:49.929Z,13.75
2022-10-28T00:17:58.114Z,13.79
2022-10-28T00:19:01.067Z,13.80
2022-10-28T00:20:04.826Z,13.82
2022-10-28T00:21:10.994Z,13.83
2022-10-28T00:22:14.089Z,13.83
2022-10-28T00:23:17.499Z,13.81
2022-10-28T00:24:20.681Z,13.74
2022-10-28T00:25:25.661Z,13.69
2022-10-28T00:26:32.065Z,13.72
2022-10-28T00:27:37.715Z,13.75
2022-10-28T00:28:48.422Z,13.78
2022-10-28T00:29:54.740Z,13.77
2022-10-28T00:30:58.839Z,13.80
2022-10-28T00:32:03.332Z,13.85
2022-10-28T00:33:07.014Z,13.85
2022-10-28T00:34:11.451Z,13.78
2022-10-28T00:35:14.948Z,13.79
2022-10-28T00:36:26.463Z,13.77
2022-10-28T00:37:29.651Z,13.81
2022-10-28T00:38:33.804Z,13.80
2022-10-28T00:39:37.429Z,13.81
2022-10-28T00:40:40.516Z,13.83
2022-10-28T00:41:45.588Z,13.80
2022-10-28T00:42:48.267Z,13.69
2022-10-28T00:43:53.861Z,13.73
2022-10-28T00:44:58.196Z,13.70
2022-10-28T00:46:01.946Z,13.68
2022-10-28T00:47:06.768Z,13.69
2022-10-28T00:48:10.179Z,13.62
2022-10-28T00:49:22.772Z,13.60
2022-10-28T00:50:43.303Z,13.58
2022-10-28T00:51:48.477Z,13.60
2022-10-28T00:52:55.218Z,13.65
2022-10-28T00:53:59.030Z,13.69
2022-10-28T00:55:03.615Z,13.71
2022-10-28T00:56:10.039Z,13.73
2022-10-28T00:57:16.342Z,13.64
2022-10-28T00:58:20.358Z,13.64
2022-10-28T00:59:26.172Z,13.67
2022-10-28T01:00:29.781Z,13.70
2022-10-28T01:01:32.426Z,13.65
2022-10-28T01:02:39.024Z,13.68
2022-10-28T01:03:42.558Z,13.69
2022-10-28T01:04:47.039Z,13.73
2022-10-28T01:05:53.231Z,13.73
2022-10-28T01:07:00.887Z,13.73
2022-10-28T01:08:04.818Z,13.74
2022-10-28T01:09:07.837Z,13.72
2022-10-28T01:10:10.716Z,13.75
2022-10-28T01:11:18.924Z,13.72
2022-10-28T01:12:27.066Z,13.70
2022-10-28T01:13:50.068Z,13.71
2022-10-28T01:15:14.508Z,13.68
2022-10-28T01:16:21.524Z,13.67
2022-10-28T01:17:29.281Z,13.67
2022-10-28T01:18:46.810Z,13.63
2022-10-28T01:20:08.488Z,13.64
2022-10-28T01:21:16.589Z,13.67
2022-10-28T01:22:29.221Z,13.68
2022-10-28T01:23:47.542Z,13.66
2022-10-28T01:24:55.722Z,13.64
2022-10-28T01:26:08.408Z,13.65
2022-10-28T01:27:22.787Z,13.59
2022-10-28T01:28:31.410Z,13.53
2022-10-28T01:29:56.310Z,13.50
2022-10-28T01:31:15.233Z,13.46
2022-10-28T01:32:20.352Z,13.54
2022-10-28T01:33:27.313Z,13.56
2022-10-28T01:34:37.608Z,13.56
2022-10-28T01:35:46.232Z,13.62
2022-10-28T01:36:51.396Z,13.61
2022-10-28T01:38:05.346Z,13.62
2022-10-28T01:39:14.491Z,13.57
2022-10-28T01:40:26.049Z,13.52
2022-10-28T01:41:30.170Z,13.54
2022-10-28T01:42:34.550Z,13.58
2022-10-28T01:43:44.480Z,13.59
2022-10-28T01:44:52.811Z,13.63
2022-10-28T01:46:01.018Z,13.64
2022-10-28T01:47:15.029Z,13.62
2022-10-28T01:48:22.871Z,13.63
2022-10-28T01:49:27.409Z,13.62
2022-10-28T01:50:48.869Z,13.61
2022-10-28T01:51:54.263Z,13.61
2022-10-28T01:52:58.813Z,13.62
2022-10-28T01:54:04.203Z,13.59
2022-10-28T01:55:12.260Z,13.58
2022-10-28T01:56:17.683Z,13.57
2022-10-28T01:57:21.804Z,13.61
2022-10-28T01:58:27.097Z,13.61
2022-10-28T01:59:31.545Z,13.62
2022-10-28T02:00:35.565Z,13.58
2022-10-28T02:01:39.136Z,13.53
2022-10-28T02:02:45.978Z,13.51
2022-10-28T02:03:48.903Z,13.55
2022-10-28T02:04:52.022Z,13.53
2022-10-28T02:06:00.693Z,13.51
2022-10-28T02:07:05.151Z,13.52
2022-10-28T02:08:22.876Z,13.53
2022-10-28T02:09:34.736Z,13.55
2022-10-28T02:10:40.222Z,13.45
2022-10-28T02:12:01.401Z,13.40
2022-10-28T02:13:06.660Z,13.48
2022-10-28T02:14:15.179Z,13.53
2022-10-28T02:15:19.312Z,13.57
2022-10-28T02:16:27.725Z,13.58
2022-10-28T02:17:42.812Z,13.58
2022-10-28T02:18:49.437Z,13.60
2022-10-28T02:19:54.602Z,13.52
2022-10-28T02:21:03.481Z,13.50
2022-10-28T02:22:08.855Z,13.53
2022-10-28T02:23:13.424Z,13.49
2022-10-28T02:24:37.172Z,13.49
2022-10-28T02:25:45.377Z,13.51
2022-10-28T02:26:50.542Z,13.51
2022-10-28T02:28:01.936Z,13.54
2022-10-28T02:29:22.838Z,13.52
2022-10-28T02:30:32.809Z,13.56
2022-10-28T02:31:38.058Z,13.43
2022-10-28T02:32:43.168Z,13.43
2022-10-28T02:33:48.338Z,13.44
2022-10-28T02:34:53.524Z,13.46
2022-10-28T02:35:57.970Z,13.50
2022-10-28T02:37:03.030Z,13.54
2022-10-28T02:38:09.058Z,13.55
2022-10-28T02:39:12.339Z,13.54
2022-10-28T02:40:19.335Z,13.55
2022-10-28T02:41:25.732Z,13.56
2022-10-28T02:42:33.623Z,13.54
2022-10-28T02:43:39.007Z,13.56
2022-10-28T02:44:44.054Z,13.58
2022-10-28T02:45:49.467Z,13.58
2022-10-28T02:46:55.678Z,13.56
2022-10-28T02:48:02.000Z,13.55
2022-10-28T02:49:07.950Z,13.54
2022-10-28T02:50:13.302Z,13.54
2022-10-28T02:51:23.179Z,13.51
2022-10-28T02:52:27.614Z,13.52
2022-10-28T02:53:34.982Z,13.54
2022-10-28T02:54:40.377Z,13.51
2022-10-28T02:55:44.949Z,13.54
2022-10-28T02:56:54.805Z,13.52
2022-10-28T02:57:59.581Z,13.54
2022-10-28T02:59:01.919Z,13.54
2022-10-28T03:00:09.088Z,13.53
2022-10-28T03:01:12.699Z,13.54
2022-10-28T03:02:16.971Z,13.53
2022-10-28T03:03:21.507Z,13.52
2022-10-28T03:04:23.937Z,13.53
2022-10-28T03:05:27.231Z,13.53
2022-10-28T03:06:30.634Z,13.52
2022-10-28T03:07:34.136Z,13.51
2022-10-28T03:08:37.212Z,13.52
2022-10-28T03:09:39.994Z,13.52
2022-10-28T03:10:43.076Z,13.51
2022-10-28T03:11:46.265Z,13.52
2022-10-28T03:12:49.676Z,13.54
2022-10-28T03:13:54.022Z,13.53
2022-10-28T03:14:57.302Z,13.52
2022-10-28T03:15:59.555Z,13.50
2022-10-28T03:17:02.442Z,13.50
2022-10-28T03:18:05.742Z,13.52
2022-10-28T03:20:12.958Z,13.50
2022-10-28T03:21:17.912Z,13.48
2022-10-28T03:22:22.046Z,13.48
2022-10-28T03:23:27.153Z,13.45
2022-10-28T03:24:30.414Z,13.50
2022-10-28T03:25:35.704Z,13.48
2022-10-28T03:26:38.060Z,13.45
2022-10-28T03:27:42.552Z,13.44
2022-10-28T03:28:46.011Z,13.46
2022-10-28T03:29:48.889Z,13.45
2022-10-28T03:30:52.490Z,13.42
2022-10-28T03:31:55.679Z,13.44
2022-10-28T03:32:58.459Z,13.40
2022-10-28T03:34:02.375Z,13.43
2022-10-28T03:35:05.254Z,13.41
2022-10-28T03:36:09.187Z,13.37
2022-10-28T03:37:12.338Z,13.40
2022-10-28T03:38:15.780Z,13.40
2022-10-28T03:39:18.343Z,13.41
2022-10-28T03:40:21.525Z,13.40
2022-10-28T03:41:27.682Z,13.40
2022-10-28T03:42:31.156Z,13.41
2022-10-28T03:43:34.558Z,13.40
2022-10-28T03:44:37.737Z,13.38
2022-10-28T03:45:40.898Z,13.35
2022-10-28T03:46:43.181Z,13.41
2022-10-28T03:47:46.376Z,13.43
2022-10-28T03:48:48.563Z,13.42
2022-10-28T03:49:52.091Z,13.44
2022-10-28T03:50:56.166Z,13.41
2022-10-28T03:52:01.448Z,13.37
2022-10-28T03:53:04.326Z,13.38
2022-10-28T03:54:08.562Z,13.37
2022-10-28T03:55:12.833Z,13.34
2022-10-28T03:56:18.005Z,13.35
2022-10-28T03:57:26.295Z,13.36
2022-10-28T03:58:30.045Z,13.34
2022-10-28T03:59:33.294Z,13.32
2022-10-28T04:00:36.802Z,13.34
2022-10-28T04:01:39.313Z,13.32
2022-10-28T04:02:43.287Z,13.27
2022-10-28T04:03:46.050Z,13.29
2022-10-28T04:04:49.419Z,13.30
2022-10-28T04:05:53.164Z,13.31
2022-10-28T04:06:57.610Z,13.26
2022-10-28T04:08:01.323Z,13.29
2022-10-28T04:09:05.673Z,13.28
2022-10-28T04:10:09.701Z,13.25
2022-10-28T04:11:12.987Z,13.27
2022-10-28T04:12:15.467Z,13.29
2022-10-28T04:13:20.624Z,13.32
2022-10-28T04:14:23.094Z,13.32
2022-10-28T04:15:26.381Z,13.33
2022-10-28T04:16:29.441Z,13.34
2022-10-28T04:17:34.759Z,13.30
2022-10-28T04:18:39.765Z,13.30
2022-10-28T04:19:43.126Z,13.31
2022-10-28T04:20:51.123Z,13.33
2022-10-28T04:21:54.616Z,13.35
2022-10-28T04:22:58.667Z,13.36
2022-10-28T04:24:09.164Z,13.37
2022-10-28T04:25:12.534Z,13.31
2022-10-28T04:26:17.004Z,13.17
2022-10-28T04:27:20.404Z,13.19
2022-10-28T04:28:26.702Z,13.24
2022-10-28T04:29:29.607Z,13.26
2022-10-28T04:30:35.816Z,13.28
2022-10-28T04:31:40.008Z,13.30
2022-10-28T04:32:42.932Z,13.29
2022-10-28T04:33:46.240Z,13.23
2022-10-28T04:34:50.056Z,13.25
2022-10-28T04:35:53.386Z,13.26
2022-10-28T04:36:56.638Z,13.28
2022-10-28T04:38:00.811Z,13.29
2022-10-28T04:39:04.598Z,13.24
2022-10-28T04:40:09.925Z,13.18
2022-10-28T04:41:14.326Z,13.24
2022-10-28T04:42:16.681Z,13.22
2022-10-28T04:43:20.080Z,13.26
2022-10-28T04:44:25.570Z,13.28
2022-10-28T04:45:28.756Z,13.31
2022-10-28T04:46:32.257Z,13.32
2022-10-28T04:47:36.711Z,13.30
2022-10-28T04:48:42.368Z,13.30
2022-10-28T04:49:46.958Z,13.27
2022-10-28T04:50:50.259Z,13.30
2022-10-28T04:51:52.612Z,13.29
2022-10-28T04:52:56.213Z,13.25
2022-10-28T04:54:00.725Z,13.25
2022-10-28T04:55:05.620Z,13.27
2022-10-28T04:56:09.592Z,13.26
2022-10-28T04:57:13.049Z,13.31
2022-10-28T04:58:16.446Z,13.33
2022-10-28T04:59:18.810Z,13.29
2022-10-28T05:00:22.531Z,13.35
2022-10-28T05:01:26.287Z,13.30
2022-10-28T05:02:29.781Z,13.31
2022-10-28T05:03:34.915Z,13.29
2022-10-28T05:04:38.431Z,13.33
2022-10-28T05:05:44.746Z,13.38
2022-10-28T05:06:48.930Z,13.41
2022-10-28T05:07:52.593Z,13.41
2022-10-28T05:08:57.464Z,13.38
2022-10-28T05:10:04.101Z,13.36
2022-10-28T05:11:07.504Z,13.40
2022-10-28T05:12:11.844Z,13.40
2022-10-28T05:13:17.640Z,13.40
2022-10-28T05:14:20.827Z,13.42
2022-10-28T05:15:27.163Z,13.41
2022-10-28T05:16:30.552Z,13.40
2022-10-28T05:17:35.113Z,13.41
2022-10-28T05:18:38.553Z,13.44
2022-10-28T05:19:44.096Z,13.42
2022-10-28T05:20:47.507Z,13.41
2022-10-28T05:21:50.804Z,13.41
2022-10-28T05:22:56.780Z,13.43
2022-10-28T05:24:05.073Z,13.37
2022-10-28T05:25:08.829Z,13.41
2022-10-28T05:26:12.266Z,13.43
2022-10-28T05:27:17.311Z,13.36
2022-10-28T05:28:21.852Z,13.32
2022-10-28T05:29:29.704Z,13.36
2022-10-28T05:30:32.135Z,13.33
2022-10-28T05:31:35.508Z,13.34
2022-10-28T05:32:38.390Z,13.37
2022-10-28T05:33:42.727Z,13.34
2022-10-28T05:34:46.056Z,13.34
2022-10-28T05:35:49.529Z,13.37
2022-10-28T05:36:54.078Z,13.43
2022-10-28T05:37:57.783Z,13.43
2022-10-28T05:39:01.296Z,13.44
2022-10-28T05:40:06.684Z,13.45
2022-10-28T05:41:10.280Z,13.40
2022-10-28T05:42:14.214Z,13.41
2022-10-28T05:43:17.747Z,13.43
2022-10-28T05:44:20.911Z,13.47
2022-10-28T05:45:24.240Z,13.46
2022-10-28T05:46:27.543Z,13.45
2022-10-28T05:47:30.898Z,13.40
2022-10-28T05:48:34.458Z,13.38
2022-10-28T05:49:38.634Z,13.32
2022-10-28T05:50:42.242Z,13.20
2022-10-28T05:51:45.550Z,13.19
2022-10-28T05:52:50.100Z,13.17
2022-10-28T05:53:54.545Z,13.19
2022-10-28T05:54:56.796Z,13.27
2022-10-28T05:56:00.186Z,13.17
2022-10-28T05:57:03.703Z,13.13
2022-10-28T05:58:07.301Z,13.15
2022-10-28T05:59:10.504Z,13.20
2022-10-28T06:00:14.112Z,13.13
2022-10-28T06:01:17.975Z,13.22
2022-10-28T06:02:22.252Z,13.29
2022-10-28T06:03:30.104Z,13.21
2022-10-28T06:04:31.998Z,13.30
2022-10-28T06:05:37.161Z,13.31
2022-10-28T06:06:40.467Z,13.32
2022-10-28T06:07:43.869Z,13.23
2022-10-28T06:08:46.109Z,13.35
2022-10-28T06:09:52.446Z,13.41
2022-10-28T06:10:55.877Z,13.46
2022-10-28T06:11:59.800Z,13.43
2022-10-28T06:13:03.399Z,13.43
2022-10-28T06:14:08.473Z,13.42
2022-10-28T06:15:11.833Z,13.49
2022-10-28T06:16:17.102Z,13.57
2022-10-28T06:17:21.498Z,13.55
2022-10-28T06:18:26.099Z,13.55
2022-10-28T06:19:29.290Z,13.30
2022-10-28T06:20:32.850Z,13.46
2022-10-28T06:21:40.451Z,13.47
2022-10-28T06:22:50.416Z,13.54
2022-10-28T06:23:53.302Z,13.61
2022-10-28T06:24:57.004Z,13.70
2022-10-28T06:26:01.392Z,13.70
2022-10-28T06:27:04.839Z,13.64
2022-10-28T06:28:10.492Z,13.63
2022-10-28T06:29:13.747Z,13.70
2022-10-28T06:30:18.817Z,13.65
2022-10-28T06:31:22.334Z,13.70
2022-10-28T06:32:26.561Z,13.76
2022-10-28T06:33:33.127Z,13.88
2022-10-28T06:34:38.167Z,13.81
2022-10-28T06:35:41.769Z,13.73
2022-10-28T06:36:44.450Z,13.73
2022-10-28T06:37:48.069Z,13.64
2022-10-28T06:38:52.548Z,13.70
2022-10-28T06:39:56.860Z,13.74
2022-10-28T06:40:59.736Z,13.78
2022-10-28T06:42:03.141Z,13.84
2022-10-28T06:43:11.547Z,13.91
2022-10-28T06:44:16.092Z,13.90
2022-10-28T06:45:19.388Z,13.99
2022-10-28T06:46:22.800Z,14.05
2022-10-28T06:47:27.496Z,14.05
2022-10-28T06:48:30.282Z,13.94
2022-10-28T06:49:33.578Z,13.93
2022-10-28T06:50:36.248Z,13.98
2022-10-28T06:51:41.666Z,14.04
2022-10-28T06:52:48.180Z,14.11
2022-10-28T06:53:52.186Z,14.04
2022-10-28T06:54:55.807Z,14.01
2022-10-28T06:56:02.730Z,13.97
2022-10-28T06:57:06.465Z,13.99
2022-10-28T06:58:09.462Z,14.04
2022-10-28T06:59:13.044Z,14.00
2022-10-28T07:00:18.300Z,13.91
2022-10-28T07:01:22.597Z,13.96
2022-10-28T07:02:26.052Z,14.04
2022-10-28T07:03:28.439Z,14.12
2022-10-28T07:04:31.852Z,14.19
2022-10-28T07:05:36.396Z,14.20
2022-10-28T07:06:40.418Z,14.10
2022-10-28T07:07:43.613Z,14.13
2022-10-28T07:08:47.049Z,14.13
2022-10-28T07:09:50.412Z,14.15
2022-10-28T07:10:54.755Z,14.25
2022-10-28T07:12:02.263Z,14.23
2022-10-28T07:13:05.037Z,14.21
2022-10-28T07:14:09.345Z,14.17
2022-10-28T07:15:13.625Z,14.17
2022-10-28T07:16:18.248Z,14.28
2022-10-28T07:17:21.649Z,14.28
2022-10-28T07:18:25.563Z,14.28
2022-10-28T07:19:29.798Z,14.40
2022-10-28T07:20:33.532Z,14.44
2022-10-28T07:21:37.332Z,14.47
2022-10-28T07:22:40.777Z,14.60
2022-10-28T07:23:44.027Z,14.77
2022-10-28T07:24:48.894Z,14.76
2022-10-28T07:27:00.605Z,14.76
2022-10-28T07:28:05.083Z,14.86
2022-10-28T07:30:13.431Z,15.24
2022-10-28T07:31:17.356Z,15.22
2022-10-28T07:32:22.991Z,15.29
2022-10-28T07:33:25.827Z,15.31
2022-10-28T07:34:28.707Z,15.37
2022-10-28T07:35:32.141Z,15.25
2022-10-28T07:36:34.569Z,15.16
2022-10-28T07:37:39.451Z,15.18
2022-10-28T07:38:42.701Z,15.21
2022-10-28T07:39:46.013Z,15.17
2022-10-28T07:40:51.636Z,15.15
2022-10-28T07:41:54.903Z,15.01
2022-10-28T07:42:59.285Z,15.05
2022-10-28T07:44:02.654Z,14.98
2022-10-28T07:45:05.573Z,15.09
2022-10-28T07:46:09.977Z,15.25
2022-10-28T07:47:13.901Z,15.24
2022-10-28T07:48:19.078Z,15.37
2022-10-28T07:49:23.000Z,15.72
2022-10-28T07:50:26.503Z,15.88
2022-10-28T07:51:30.633Z,16.00
2022-10-28T07:52:35.287Z,16.08
2022-10-28T07:53:37.760Z,16.22
2022-10-28T07:54:42.703Z,16.45
2022-10-28T07:55:46.115Z,16.38
2022-10-28T07:56:49.725Z,16.51
2022-10-28T07:57:56.641Z,16.37
2022-10-28T07:59:00.897Z,16.69
2022-10-28T08:00:06.186Z,17.04
2022-10-28T08:01:17.510Z,16.96
2022-10-28T08:02:21.551Z,16.78
2022-10-28T08:03:34.595Z,16.85
2022-10-28T08:04:32.214Z,16.98
2022-10-28T08:05:34.466Z,16.97
2022-10-28T08:06:38.677Z,16.78
2022-10-28T08:07:42.235Z,16.72
2022-10-28T08:08:46.570Z,16.75
2022-10-28T08:09:50.029Z,16.75
2022-10-28T08:10:56.364Z,16.87
2022-10-28T08:12:02.497Z,16.88
2022-10-28T08:13:07.691Z,16.87
2022-10-28T08:14:11.361Z,16.78
2022-10-28T08:15:15.705Z,16.78
2022-10-28T08:16:19.340Z,16.56
2022-10-28T08:17:23.009Z,16.71
2022-10-28T08:18:25.184Z,16.71
2022-10-28T08:19:27.513Z,16.79
2022-10-28T08:20:29.778Z,16.78
2022-10-28T08:21:33.276Z,16.76
2022-10-28T08:22:36.606Z,16.66
2022-10-28T08:23:40.391Z,16.56
2022-10-28T08:24:45.224Z,16.75
2022-10-28T08:25:51.557Z,16.86
2022-10-28T08:26:54.977Z,16.86
2022-10-28T08:27:58.377Z,17.11
2022-10-28T08:29:03.658Z,17.16
2022-10-28T08:30:07.999Z,17.05
2022-10-28T08:31:12.587Z,17.00
2022-10-28T08:32:15.948Z,17.04
2022-10-28T08:33:19.559Z,17.05
2022-10-28T08:34:25.772Z,16.95
2022-10-28T08:35:30.641Z,16.74
2022-10-28T08:36:34.136Z,16.79
2022-10-28T08:37:37.652Z,16.77
2022-10-28T08:38:45.343Z,16.86
2022-10-28T08:39:46.438Z,16.94
2022-10-28T08:40:52.035Z,16.93
2022-10-28T08:41:57.208Z,17.01
2022-10-28T08:43:02.252Z,17.02
2022-10-28T08:44:24.168Z,16.90
2022-10-28T08:45:38.107Z,17.12
2022-10-28T08:46:52.162Z,17.55
2022-10-28T08:48:13.958Z,17.77
2022-10-28T08:49:18.611Z,17.84
2022-10-28T08:50:23.569Z,17.52
2022-10-28T08:51:44.516Z,17.80
2022-10-28T08:52:56.673Z,17.91
2022-10-28T08:54:02.190Z,18.46
2022-10-28T08:55:08.726Z,18.28
2022-10-28T08:56:15.040Z,18.44
2022-10-28T08:57:20.441Z,18.55
2022-10-28T08:58:24.775Z,18.80
2022-10-28T08:59:31.626Z,18.74
2022-10-28T09:00:35.444Z,18.95
2022-10-28T09:01:42.779Z,18.50
2022-10-28T09:03:04.898Z,18.51
2022-10-28T09:04:10.399Z,18.12
2022-10-28T09:05:21.675Z,17.74
2022-10-28T09:06:23.877Z,17.48
2022-10-28T09:07:27.282Z,17.77
2022-10-28T09:08:32.141Z,18.00
2022-10-28T09:09:35.849Z,17.90
2022-10-28T09:10:42.945Z,17.78
2022-10-28T09:11:52.165Z,17.67
2022-10-28T09:12:58.206Z,17.48
2022-10-28T09:14:05.803Z,17.52
2022-10-28T09:15:15.520Z,17.56
2022-10-28T09:16:28.435Z,17.87
2022-10-28T09:17:42.516Z,18.12
2022-10-28T09:18:52.677Z,18.16
2022-10-28T09:20:00.965Z,17.91
2022-10-28T09:21:07.929Z,17.96
2022-10-28T09:22:28.993Z,18.25
2022-10-28T09:23:38.452Z,18.23
2022-10-28T09:24:51.876Z,18.10
2022-10-28T09:26:00.710Z,18.11
2022-10-28T09:27:08.080Z,17.90
2022-10-28T09:28:16.481Z,17.86
2022-10-28T09:29:22.788Z,17.96
2022-10-28T09:30:29.041Z,17.73
2022-10-28T09:31:43.401Z,17.79
2022-10-28T09:32:50.347Z,17.75
2022-10-28T09:34:04.298Z,17.99
2022-10-28T09:35:11.157Z,17.88
2022-10-28T09:36:16.427Z,18.00
2022-10-28T09:37:27.568Z,17.87
2022-10-28T09:38:32.692Z,17.75
2022-10-28T09:39:47.891Z,17.90
2022-10-28T09:40:52.276Z,18.03
2022-10-28T09:41:57.671Z,18.16
2022-10-28T09:43:14.754Z,18.14
2022-10-28T09:44:19.084Z,17.85
2022-10-28T09:45:27.194Z,17.96
2022-10-28T09:46:36.190Z,18.15
2022-10-28T09:47:40.612Z,18.15
2022-10-28T09:48:51.497Z,18.27
2022-10-28T09:49:56.688Z,18.22
2022-10-28T09:51:00.376Z,18.44
2022-10-28T09:52:07.224Z,18.55
2022-10-28T09:53:12.403Z,18.33
2022-10-28T09:54:15.813Z,18.28
2022-10-28T09:55:22.870Z,18.21
2022-10-28T09:56:27.208Z,17.90
2022-10-28T09:57:32.517Z,17.91
2022-10-28T09:58:36.350Z,18.06
2022-10-28T09:59:40.861Z,17.97
2022-10-28T10:00:45.201Z,18.01
2022-10-28T10:01:51.652Z,18.00
2022-10-28T10:02:58.235Z,18.11
2022-10-28T10:04:01.133Z,18.41
2022-10-28T10:05:07.365Z,18.48
2022-10-28T10:06:12.426Z,18.22
2022-10-28T10:07:17.499Z,18.22
2022-10-28T10:08:21.640Z,18.16
2022-10-28T10:09:26.920Z,18.16
2022-10-28T10:10:37.729Z,18.01
2022-10-28T10:11:45.386Z,18.06
2022-10-28T10:12:52.390Z,18.29
2022-10-28T10:13:56.086Z,18.26
2022-10-28T10:14:59.933Z,18.27
2022-10-28T10:16:05.382Z,18.43
2022-10-28T10:17:16.408Z,18.54
2022-10-28T10:18:21.020Z,18.35
2022-10-28T10:19:24.357Z,18.30
2022-10-28T10:20:27.873Z,18.19
2022-10-28T10:21:34.920Z,18.17
2022-10-28T10:22:42.654Z,18.25
2022-10-28T10:23:46.327Z,18.45
2022-10-28T10:24:49.726Z,18.21
2022-10-28T10:27:12.811Z,18.63
2022-10-28T10:28:17.583Z,18.64
2022-10-28T10:29:21.284Z,18.74
2022-10-28T10:30:28.245Z,18.43
2022-10-28T10:31:31.866Z,18.31
2022-10-28T10:32:35.256Z,18.29
2022-10-28T10:33:40.109Z,18.37
2022-10-28T10:34:44.252Z,18.54
2022-10-28T10:35:50.994Z,18.40
2022-10-28T10:36:55.040Z,18.17
2022-10-28T10:38:00.290Z,18.21
2022-10-28T10:39:04.012Z,18.36
2022-10-28T10:40:20.355Z,18.36
2022-10-28T10:41:36.812Z,18.24
2022-10-28T10:42:51.884Z,18.08
2022-10-28T10:43:47.806Z,18.09
2022-10-28T10:44:52.864Z,18.11
2022-10-28T10:46:08.083Z,18.08
2022-10-28T10:47:16.914Z,18.10
2022-10-28T10:48:23.547Z,18.35
2022-10-28T10:49:27.542Z,18.36
2022-10-28T10:51:40.117Z,18.06
2022-10-28T10:52:44.466Z,17.84
2022-10-28T10:53:51.717Z,17.67
2022-10-28T10:54:59.966Z,17.65
2022-10-28T10:56:04.891Z,17.72
2022-10-28T10:57:17.933Z,17.74
2022-10-28T10:58:22.971Z,17.43
2022-10-28T10:59:29.411Z,17.47
2022-10-28T11:00:37.285Z,17.57
2022-10-28T11:01:41.620Z,17.56
2022-10-28T11:02:50.049Z,17.58
2022-10-28T11:05:06.759Z,17.31
2022-10-28T11:06:23.229Z,17.26
2022-10-28T11:07:17.027Z,17.13
2022-10-28T11:08:39.884Z,17.07
2022-10-28T11:09:43.349Z,17.19
2022-10-28T11:10:48.285Z,17.26
2022-10-28T11:11:55.711Z,17.40
2022-10-28T11:13:00.978Z,17.45
2022-10-28T11:14:05.203Z,17.42
2022-10-28T11:15:19.988Z,17.37
2022-10-28T11:16:27.619Z,17.31
2022-10-28T11:18:39.288Z,17.41
2022-10-28T11:19:41.959Z,17.38
2022-10-28T11:20:56.220Z,17.36
2022-10-28T11:22:03.475Z,17.33
2022-10-28T11:23:10.334Z,17.33
2022-10-28T11:24:28.078Z,17.37
2022-10-28T11:25:39.532Z,17.44
2022-10-28T11:26:44.757Z,17.42
2022-10-28T11:27:57.635Z,17.19
2022-10-28T11:30:17.317Z,17.28
2022-10-28T11:31:38.478Z,17.20
2022-10-28T11:32:54.610Z,17.32
2022-10-28T11:33:49.665Z,17.22
2022-10-28T11:35:13.121Z,17.07
2022-10-28T11:36:21.430Z,16.95
2022-10-28T11:37:31.301Z,17.06
2022-10-28T11:38:38.465Z,17.03
2022-10-28T11:39:44.791Z,17.11
2022-10-28T11:41:07.401Z,17.13
2022-10-28T11:42:27.407Z,16.93
2022-10-28T11:43:38.539Z,16.80
2022-10-28T11:44:47.309Z,16.92
2022-10-28T11:45:56.619Z,16.95
2022-10-28T11:47:10.685Z,16.91
2022-10-28T11:48:18.784Z,16.77
2022-10-28T11:49:23.845Z,16.56
2022-10-28T11:50:33.826Z,16.55
2022-10-28T11:51:39.929Z,16.52
2022-10-28T11:52:48.159Z,16.35
2022-10-28T11:53:58.991Z,16.39
2022-10-28T11:55:13.221Z,16.40
2022-10-28T11:56:28.117Z,16.46
2022-10-28T11:57:36.545Z,16.59
2022-10-28T11:59:01.030Z,16.63
2022-10-28T12:00:12.181Z,16.55
2022-10-28T12:01:22.719Z,16.60
2022-10-28T12:02:37.014Z,16.64
2022-10-28T12:03:43.671Z,16.70
2022-10-28T12:05:01.077Z,16.79
2022-10-28T12:06:26.305Z,16.85
2022-10-28T12:07:30.857Z,16.91
2022-10-28T12:08:41.778Z,16.93
2022-10-28T12:09:54.365Z,16.81
2022-10-28T12:11:08.517Z,16.77
2022-10-28T12:12:13.912Z,16.94
2022-10-28T12:13:25.147Z,16.91
2022-10-28T12:14:40.177Z,16.90
2022-10-28T12:15:48.022Z,16.99
2022-10-28T12:16:54.401Z,17.05
2022-10-28T12:17:59.751Z,17.06
2022-10-28T12:19:05.337Z,17.02
2022-10-28T12:20:11.675Z,17.07
2022-10-28T12:21:17.030Z,17.03
2022-10-28T12:22:35.534Z,17.00
2022-10-28T12:23:39.203Z,16.96
2022-10-28T12:24:46.221Z,17.00
2022-10-28T12:25:55.613Z,16.99
2022-10-28T12:27:01.102Z,16.91
2022-10-28T12:28:05.461Z,16.93
2022-10-28T12:29:21.377Z,16.85
2022-10-28T12:30:27.491Z,16.82
2022-10-28T12:31:32.179Z,16.84
2022-10-28T12:32:38.263Z,16.76
2022-10-28T12:33:45.110Z,16.81
2022-10-28T12:34:50.588Z,16.88
2022-10-28T12:35:55.625Z,16.95
2022-10-28T12:37:18.797Z,16.99
2022-10-28T12:38:31.092Z,16.97
2022-10-28T12:39:43.161Z,16.98
2022-10-28T12:40:52.798Z,16.97
2022-10-28T12:42:06.051Z,17.00
2022-10-28T12:43:20.101Z,17.00
2022-10-28T12:44:25.277Z,17.03
2022-10-28T12:45:30.652Z,17.04
2022-10-28T12:46:36.868Z,17.04
2022-10-28T12:47:43.550Z,17.01
2022-10-28T12:48:50.571Z,17.05
2022-10-28T12:50:07.133Z,17.03
2022-10-28T12:51:13.202Z,17.00
2022-10-28T12:52:23.538Z,16.99
2022-10-28T12:53:45.019Z,16.92
2022-10-28T12:54:53.626Z,16.96
2022-10-28T12:56:02.538Z,17.00
2022-10-28T12:57:08.685Z,16.94
2022-10-28T12:58:20.217Z,16.96
2022-10-28T12:59:25.419Z,16.92
2022-10-28T13:00:31.726Z,16.85
2022-10-28T13:01:37.798Z,16.89
2022-10-28T13:02:46.168Z,16.85
2022-10-28T13:03:50.718Z,16.90
2022-10-28T13:04:55.295Z,16.84
2022-10-28T13:06:16.744Z,16.71
2022-10-28T13:07:24.030Z,16.71
2022-10-28T13:08:37.987Z,16.74
2022-10-28T13:09:48.455Z,16.77
2022-10-28T13:10:59.576Z,16.78
2022-10-28T13:12:06.631Z,16.82
2022-10-28T13:13:13.536Z,16.78
2022-10-28T13:14:34.530Z,16.81
2022-10-28T13:15:39.013Z,16.80
2022-10-28T13:17:04.321Z,16.78
2022-10-28T13:18:09.605Z,16.71
2022-10-28T13:19:19.485Z,16.71
2022-10-28T13:20:31.372Z,16.70
2022-10-28T13:21:46.365Z,16.76
2022-10-28T13:22:54.503Z,16.78
2022-10-28T13:24:07.815Z,16.74
2022-10-28T13:25:32.878Z,16.57
2022-10-28T13:26:38.123Z,16.53
2022-10-28T13:27:45.150Z,16.53
2022-10-28T13:28:49.394Z,16.41
2022-10-28T13:29:55.497Z,16.40
2022-10-28T13:31:02.100Z,16.36
2022-10-28T13:32:05.390Z,16.38
2022-10-28T13:33:11.441Z,16.30
2022-10-28T13:34:17.950Z,16.34
2022-10-28T13:35:23.262Z,16.37
2022-10-28T13:36:28.099Z,16.36
2022-10-28T13:37:34.718Z,16.19
2022-10-28T13:38:37.702Z,16.02
2022-10-28T13:39:42.772Z,16.07
2022-10-28T13:40:48.187Z,15.96
2022-10-28T13:41:54.317Z,15.96
2022-10-28T13:42:59.145Z,16.02
2022-10-28T13:44:09.860Z,16.04
2022-10-28T13:45:31.747Z,15.88
2022-10-28T13:46:54.540Z,15.78
2022-10-28T13:48:16.565Z,15.83
2022-10-28T13:49:21.848Z,15.87
2022-10-28T13:50:36.622Z,15.89
2022-10-28T13:51:46.196Z,15.85
2022-10-28T13:52:51.562Z,15.89
2022-10-28T13:53:57.375Z,15.79
2022-10-28T13:55:01.818Z,15.75
2022-10-28T13:56:19.898Z,15.57
2022-10-28T13:57:32.109Z,15.55
2022-10-28T13:58:37.077Z,15.49
2022-10-28T13:59:44.884Z,15.52
2022-10-28T14:00:52.077Z,15.57
2022-10-28T14:02:07.587Z,15.59
2022-10-28T14:03:21.207Z,15.54
2022-10-28T14:04:29.508Z,15.40
2022-10-28T14:05:34.673Z,15.41
2022-10-28T14:06:38.221Z,15.30
2022-10-28T14:07:43.678Z,15.34
2022-10-28T14:08:54.526Z,15.32
2022-10-28T14:09:59.660Z,15.29
2022-10-28T14:11:10.590Z,15.26
2022-10-28T14:12:22.337Z,15.14
2022-10-28T14:13:26.479Z,15.16
2022-10-28T14:14:30.432Z,15.17
2022-10-28T14:15:38.400Z,15.18
2022-10-28T14:16:43.578Z,15.13
2022-10-28T14:17:51.200Z,14.97
2022-10-28T14:18:56.738Z,14.88
2022-10-28T14:19:59.834Z,14.90
2022-10-28T14:21:03.455Z,14.90
2022-10-28T14:22:08.261Z,14.93
2022-10-28T14:23:22.304Z,14.87
2022-10-28T14:24:33.181Z,14.75
2022-10-28T14:25:48.684Z,14.78